Time;durP1;ratioP1;P1;durP2;ratioP2;P2;SDS_P1;SDS_P2;PMS_P1;PMS_P2;Temp;Humidity;BMP_temperature;BMP_pressure;BME280_temperature;BME280_humidity;BME280_pressure;Samples;Min_cycle;Max_cycle;Signal;HPM_P1;HPM_P2
2023/09/24 00:02:11;;;;;;;8.27;4.32;;;16.90;65.90;;;;;;5061300;28;20076;-66
2023/09/24 00:04:37;;;;;;;8.40;3.97;;;16.90;66.00;;;;;;5054476;28;20558;-66
2023/09/24 00:07:04;;;;;;;5.53;3.40;;;16.90;66.10;;;;;;5057027;28;20044;-66
2023/09/24 00:09:30;;;;;;;7.40;4.05;;;16.90;66.10;;;;;;5064037;28;20029;-67
2023/09/24 00:11:57;;;;;;;6.38;3.28;;;16.90;66.20;;;;;;5057398;28;20074;-66
2023/09/24 00:14:26;;;;;;;7.50;3.38;;;16.90;66.30;;;;;;5055651;28;20040;-66
2023/09/24 00:16:52;;;;;;;6.45;3.35;;;16.90;66.40;;;;;;5051628;28;20029;-66
2023/09/24 00:19:18;;;;;;;6.88;3.95;;;16.80;66.20;;;;;;5059364;28;20419;-66
2023/09/24 00:21:46;;;;;;;4.95;3.40;;;16.90;66.50;;;;;;5059998;28;20170;-67
2023/09/24 00:24:17;;;;;;;9.60;4.00;;;16.80;66.40;;;;;;5057791;28;20043;-66
2023/09/24 00:26:44;;;;;;;8.70;4.00;;;16.80;66.50;;;;;;5056715;28;20045;-66
2023/09/24 00:29:10;;;;;;;6.95;3.20;;;16.90;66.70;;;;;;5065154;28;20030;-66
2023/09/24 00:31:36;;;;;;;6.05;3.05;;;16.80;66.60;;;;;;5058234;28;20036;-68
2023/09/24 00:34:02;;;;;;;7.68;3.67;;;16.80;66.70;;;;;;5058522;28;20222;-70
2023/09/24 00:36:28;;;;;;;5.53;3.25;;;16.80;66.80;;;;;;5060243;28;20458;-66
2023/09/24 00:38:54;;;;;;;8.00;4.35;;;16.80;66.90;;;;;;5053728;28;20020;-66
2023/09/24 00:41:20;;;;;;;7.18;3.42;;;16.80;66.90;;;;;;5058628;28;20029;-66
2023/09/24 00:43:46;;;;;;;5.75;3.58;;;16.80;67.00;;;;;;5059285;28;20115;-67
2023/09/24 00:46:14;;;;;;;7.80;3.97;;;16.80;67.00;;;;;;5059530;28;20110;-67
2023/09/24 00:48:40;;;;;;;7.57;3.10;;;16.80;67.10;;;;;;5059343;28;20044;-67
2023/09/24 00:51:18;;;;;;;9.02;3.50;;;16.80;67.20;;;;;;5057634;28;20548;-68
2023/09/24 00:53:46;;;;;;;7.28;5.07;;;16.80;67.40;;;;;;5060557;28;20020;-67
2023/09/24 00:56:13;;;;;;;7.60;3.58;;;16.90;67.50;;;;;;5064474;28;20020;-68
2023/09/24 00:58:42;;;;;;;7.20;3.72;;;16.80;67.40;;;;;;5064923;28;20048;-66
2023/09/24 01:01:08;;;;;;;6.95;2.85;;;16.90;67.70;;;;;;5059983;28;20033;-70
2023/09/24 01:03:34;;;;;;;6.63;3.08;;;16.90;67.80;;;;;;5062130;28;20548;-68
2023/09/24 01:06:00;;;;;;;10.68;3.50;;;16.90;67.80;;;;;;5060613;28;20028;-69
2023/09/24 01:08:33;;;;;;;7.50;3.97;;;16.90;67.90;;;;;;5059558;28;20028;-71
2023/09/24 01:11:01;;;;;;;9.40;3.08;;;16.90;68.00;;;;;;5058542;28;20041;-69
2023/09/24 01:13:45;;;;;;;9.13;3.25;;;16.90;68.40;;;;;;5050114;28;20578;-69
2023/09/24 01:16:12;;;;;;;8.40;2.85;;;16.90;68.20;;;;;;5051023;28;20531;-70
2023/09/24 01:18:39;;;;;;;5.00;2.80;;;16.90;68.20;;;;;;5058708;28;20517;-67
2023/09/24 01:21:16;;;;;;;4.38;2.85;;;16.90;68.30;;;;;;5056840;28;20024;-65
2023/09/24 01:23:45;;;;;;;6.75;3.00;;;16.90;68.50;;;;;;5057027;28;20681;-67
2023/09/24 01:26:12;;;;;;;5.35;2.50;;;16.90;68.50;;;;;;5058253;28;20046;-69
2023/09/24 01:28:39;;;;;;;6.95;3.13;;;16.90;68.50;;;;;;5062930;28;20035;-68
2023/09/24 01:31:06;;;;;;;5.93;3.33;;;16.90;68.70;;;;;;5058909;28;20631;-69
2023/09/24 01:33:36;;;;;;;5.35;2.75;;;16.90;68.70;;;;;;5060134;28;20302;-66
2023/09/24 01:36:03;;;;;;;4.75;2.25;;;16.90;68.80;;;;;;5056508;28;20024;-67
2023/09/24 01:38:29;;;;;;;7.88;2.97;;;16.90;68.90;;;;;;5058234;28;20504;-67
2023/09/24 01:40:55;;;;;;;7.35;2.90;;;16.90;69.00;;;;;;5055956;28;20145;-67
2023/09/24 01:43:21;;;;;;;6.90;3.08;;;17.00;69.20;;;;;;5052896;28;20037;-66
2023/09/24 01:45:47;;;;;;;9.10;3.58;;;17.00;69.30;;;;;;5058653;28;20496;-67
2023/09/24 01:48:15;;;;;;;9.43;3.63;;;17.00;69.40;;;;;;5055115;28;20397;-67
2023/09/24 01:50:41;;;;;;;5.07;2.58;;;17.00;69.40;;;;;;5051191;28;20210;-70
2023/09/24 01:53:08;;;;;;;6.82;2.60;;;17.00;69.50;;;;;;5053721;28;20025;-69
2023/09/24 01:55:36;;;;;;;5.22;2.60;;;17.00;69.60;;;;;;5054936;28;20051;-68
2023/09/24 01:58:02;;;;;;;4.72;1.98;;;17.00;69.60;;;;;;5037394;28;20079;-77
2023/09/24 02:00:29;;;;;;;7.35;2.53;;;17.00;69.70;;;;;;5048118;28;20962;-67
2023/09/24 02:02:59;;;;;;;10.82;2.97;;;17.10;70.00;;;;;;5044637;28;20029;-67
2023/09/24 02:05:32;;;;;;;5.15;2.65;;;17.10;70.10;;;;;;5054248;28;20048;-69
2023/09/24 02:08:07;;;;;;;7.95;2.72;;;17.10;70.10;;;;;;5049639;28;20032;-66
2023/09/24 02:10:33;;;;;;;5.25;1.92;;;17.10;70.20;;;;;;5054227;28;20481;-68
2023/09/24 02:13:00;;;;;;;7.80;3.78;;;17.10;70.30;;;;;;5047608;28;20108;-67
2023/09/24 02:15:27;;;;;;;8.07;2.65;;;17.10;70.40;;;;;;5048415;28;20036;-68
2023/09/24 02:17:53;;;;;;;5.93;2.63;;;17.10;70.50;;;;;;5060920;28;20025;-66
2023/09/24 02:20:25;;;;;;;4.28;1.90;;;17.10;70.50;;;;;;5050330;28;20047;-67
2023/09/24 02:22:57;;;;;;;7.47;3.42;;;17.10;70.60;;;;;;5054671;28;20490;-66
2023/09/24 02:25:24;;;;;;;6.90;2.93;;;17.10;70.70;;;;;;5069193;28;20325;-66
2023/09/24 02:27:51;;;;;;;3.80;2.30;;;17.10;70.70;;;;;;5059535;28;20470;-66
2023/09/24 02:30:18;;;;;;;6.57;2.08;;;17.10;70.80;;;;;;5058946;28;20360;-67
2023/09/24 02:32:44;;;;;;;8.95;3.25;;;17.10;70.90;;;;;;5062084;28;20051;-70
2023/09/24 02:35:12;;;;;;;5.57;2.15;;;17.10;70.90;;;;;;5058052;28;20035;-68
2023/09/24 02:37:44;;;;;;;7.65;2.33;;;17.10;70.90;;;;;;5058397;28;20484;-66
2023/09/24 02:40:15;;;;;;;4.77;2.10;;;17.10;71.00;;;;;;5054559;28;20466;-68
2023/09/24 02:42:46;;;;;;;3.90;1.98;;;17.10;71.00;;;;;;5056757;28;20523;-69
2023/09/24 02:45:15;;;;;;;3.83;1.80;;;17.10;71.10;;;;;;5053364;28;20037;-67
2023/09/24 02:47:42;;;;;;;4.35;1.90;;;17.10;71.20;;;;;;5056011;28;20028;-68
2023/09/24 02:50:12;;;;;;;7.60;2.10;;;17.10;71.20;;;;;;5058217;28;20037;-66
2023/09/24 02:52:44;;;;;;;5.03;1.90;;;17.10;71.30;;;;;;5041878;28;20495;-66
2023/09/24 02:55:13;;;;;;;5.32;2.15;;;17.10;71.30;;;;;;5060830;28;20327;-67
2023/09/24 02:57:40;;;;;;;5.40;1.45;;;17.10;71.40;;;;;;5059497;28;20074;-67
2023/09/24 03:00:19;;;;;;;5.43;2.00;;;17.10;71.40;;;;;;5035697;28;20036;-66
2023/09/24 03:02:47;;;;;;;6.38;2.65;;;17.20;71.70;;;;;;5036426;28;20037;-67
2023/09/24 03:05:24;;;;;;;7.63;2.08;;;17.10;71.60;;;;;;5026308;28;20499;-69
2023/09/24 03:07:52;;;;;;;5.25;1.75;;;17.20;71.80;;;;;;5044947;28;20025;-68
2023/09/24 03:10:19;;;;;;;5.65;1.88;;;17.10;71.70;;;;;;5040607;28;20067;-67
2023/09/24 03:12:49;;;;;;;5.07;2.30;;;17.20;71.90;;;;;;5039082;28;20102;-71
2023/09/24 03:15:15;;;;;;;3.75;1.58;;;17.20;72.10;;;;;;5035168;28;20488;-66
2023/09/24 03:17:43;;;;;;;3.85;1.67;;;17.20;72.00;;;;;;5041887;28;20040;-68
2023/09/24 03:20:19;;;;;;;4.97;2.17;;;17.20;72.10;;;;;;5042328;28;20845;-71
2023/09/24 03:22:50;;;;;;;5.30;1.70;;;17.20;72.10;;;;;;5040431;28;20044;-67
2023/09/24 03:25:22;;;;;;;4.22;1.55;;;17.20;72.20;;;;;;5043397;28;20157;-67
2023/09/24 03:27:54;;;;;;;3.92;1.73;;;17.20;72.30;;;;;;5042382;28;20095;-69
2023/09/24 03:30:21;;;;;;;5.10;2.72;;;17.20;72.30;;;;;;5035526;28;20049;-68
2023/09/24 03:32:50;;;;;;;5.85;1.90;;;17.20;72.40;;;;;;5045544;28;20032;-66
2023/09/24 03:35:27;;;;;;;8.38;2.35;;;17.20;72.50;;;;;;5025833;28;20041;-70
2023/09/24 03:37:55;;;;;;;5.22;2.03;;;17.20;72.50;;;;;;5043486;28;20362;-66
2023/09/24 03:40:28;;;;;;;7.38;2.22;;;17.20;72.50;;;;;;5041041;28;20040;-72
2023/09/24 03:42:55;;;;;;;5.90;2.17;;;17.20;72.60;;;;;;5042181;28;20165;-67
2023/09/24 03:45:23;;;;;;;6.00;1.90;;;17.20;72.70;;;;;;5038306;28;20329;-68
2023/09/24 03:47:49;;;;;;;6.35;2.10;;;17.20;72.70;;;;;;5041589;28;20029;-67
2023/09/24 03:50:17;;;;;;;6.28;2.67;;;17.30;72.90;;;;;;5031468;28;20052;-66
2023/09/24 03:52:51;;;;;;;8.05;2.15;;;17.30;73.00;;;;;;5038398;28;20457;-67
2023/09/24 03:55:19;;;;;;;5.85;1.75;;;17.30;73.70;;;;;;5035371;28;20051;-67
2023/09/24 03:57:47;;;;;;;7.95;2.22;;;17.20;72.90;;;;;;5036589;28;20029;-67
2023/09/24 04:00:16;;;;;;;6.18;1.60;;;17.30;73.10;;;;;;5060524;28;20036;-68
2023/09/24 04:02:49;;;;;;;5.97;2.05;;;17.30;73.20;;;;;;5055397;28;20052;-68
2023/09/24 04:05:21;;;;;;;12.57;2.58;;;17.30;73.20;;;;;;5058309;28;20056;-68
2023/09/24 04:07:49;;;;;;;8.25;2.38;;;17.30;73.30;;;;;;5054176;28;20472;-69
2023/09/24 04:10:16;;;;;;;5.97;2.10;;;17.30;73.30;;;;;;5050049;28;20518;-67
2023/09/24 04:12:43;;;;;;;8.15;1.80;;;17.30;73.30;;;;;;5052806;28;20123;-68
2023/09/24 04:15:10;;;;;;;7.65;2.78;;;17.30;73.40;;;;;;5050168;28;20032;-68
2023/09/24 04:17:41;;;;;;;11.00;1.70;;;17.40;73.60;;;;;;5062942;28;20075;-67
2023/09/24 04:20:12;;;;;;;4.72;1.77;;;17.40;73.70;;;;;;5055431;28;20116;-66
2023/09/24 04:22:38;;;;;;;6.57;1.98;;;17.40;73.70;;;;;;5058108;28;20113;-69
2023/09/24 04:25:04;;;;;;;6.10;2.40;;;17.40;73.70;;;;;;5054108;28;20516;-66
2023/09/24 04:27:30;;;;;;;5.93;2.40;;;17.40;73.70;;;;;;5057046;28;20482;-67
2023/09/24 04:29:56;;;;;;;4.45;2.00;;;17.40;73.80;;;;;;5054881;28;20054;-67
2023/09/24 04:32:22;;;;;;;4.80;2.17;;;17.40;73.80;;;;;;5059424;28;20476;-66
2023/09/24 04:34:50;;;;;;;5.95;1.75;;;17.40;73.90;;;;;;5053417;28;20044;-66
2023/09/24 04:37:19;;;;;;;8.23;2.22;;;17.40;73.90;;;;;;5061958;28;20028;-67
2023/09/24 04:39:46;;;;;;;5.20;1.85;;;17.40;73.90;;;;;;5060060;28;20064;-67
2023/09/24 04:42:12;;;;;;;4.75;1.60;;;17.40;74.00;;;;;;5057555;28;20036;-68
2023/09/24 04:44:38;;;;;;;6.40;2.55;;;17.40;74.00;;;;;;5058043;28;20029;-66
2023/09/24 04:47:04;;;;;;;4.38;1.60;;;17.50;74.20;;;;;;5060165;28;20456;-70
2023/09/24 04:49:31;;;;;;;3.42;1.50;;;17.50;74.30;;;;;;5055419;28;20047;-69
2023/09/24 04:51:57;;;;;;;5.93;1.50;;;17.50;74.30;;;;;;5053811;28;20274;-67
2023/09/24 04:54:23;;;;;;;4.05;1.58;;;17.50;74.40;;;;;;5055606;28;20270;-68
2023/09/24 04:56:49;;;;;;;5.10;1.67;;;17.50;74.40;;;;;;5058706;28;20032;-69
2023/09/24 04:59:15;;;;;;;8.52;2.65;;;17.50;74.40;;;;;;5053042;28;20049;-67
2023/09/24 05:01:41;;;;;;;15.80;3.70;;;17.50;74.40;;;;;;5056019;28;20035;-69
2023/09/24 05:04:07;;;;;;;4.25;1.92;;;17.50;74.50;;;;;;5058130;28;20376;-67
2023/09/24 05:06:33;;;;;;;5.18;1.92;;;17.50;74.50;;;;;;5057677;28;20036;-68
2023/09/24 05:08:59;;;;;;;4.30;1.90;;;17.50;74.50;;;;;;5053013;28;20028;-66
2023/09/24 05:11:25;;;;;;;7.90;2.40;;;17.50;74.50;;;;;;5060682;28;20424;-67
2023/09/24 05:13:52;;;;;;;6.60;2.45;;;17.50;74.50;;;;;;5059809;28;20041;-67
2023/09/24 05:16:19;;;;;;;4.38;1.45;;;17.50;74.50;;;;;;5053045;28;20032;-68
2023/09/24 05:18:45;;;;;;;2.63;1.35;;;17.50;74.50;;;;;;5058695;28;20029;-70
2023/09/24 05:21:15;;;;;;;23.90;2.83;;;17.50;74.50;;;;;;5060042;28;20040;-67
2023/09/24 05:23:41;;;;;;;5.53;1.88;;;17.60;74.70;;;;;;5057225;28;20040;-67
2023/09/24 05:26:14;;;;;;;3.85;1.77;;;17.60;74.70;;;;;;5069698;28;20434;-68
2023/09/24 05:28:41;;;;;;;4.47;1.65;;;17.60;74.80;;;;;;5061296;28;20035;-67
2023/09/24 05:31:07;;;;;;;3.75;1.92;;;17.60;74.70;;;;;;5064231;28;20044;-68
2023/09/24 05:33:33;;;;;;;3.13;1.48;;;17.60;74.70;;;;;;5064386;28;20052;-68
2023/09/24 05:35:59;;;;;;;4.63;1.60;;;17.60;74.70;;;;;;5065724;28;20048;-68
2023/09/24 05:38:27;;;;;;;5.10;1.52;;;17.60;74.80;;;;;;5069422;28;20598;-66
2023/09/24 05:40:53;;;;;;;2.80;1.02;;;17.60;74.80;;;;;;5065436;28;20488;-66
2023/09/24 05:43:20;;;;;;;3.33;1.63;;;17.60;74.80;;;;;;5058817;28;20040;-67
2023/09/24 05:45:47;;;;;;;5.28;1.48;;;17.60;74.90;;;;;;5058057;28;20032;-67
2023/09/24 05:48:15;;;;;;;4.63;1.40;;;17.60;74.90;;;;;;5059045;28;20044;-68
2023/09/24 05:50:42;;;;;;;7.47;1.80;;;17.70;75.10;;;;;;5055051;28;20044;-69
2023/09/24 05:53:11;;;;;;;3.92;1.20;;;17.60;74.90;;;;;;5060419;28;20211;-69
2023/09/24 05:55:38;;;;;;;3.15;1.15;;;17.70;75.20;;;;;;5051665;28;20037;-67
2023/09/24 05:58:07;;;;;;;4.35;1.20;;;17.60;75.00;;;;;;5057411;28;20035;-66
2023/09/24 06:00:36;;;;;;;2.78;1.35;;;17.60;75.00;;;;;;5062960;28;20086;-68
2023/09/24 06:03:03;;;;;;;2.20;0.95;;;17.70;75.20;;;;;;5062328;28;20036;-67
2023/09/24 06:05:29;;;;;;;3.47;1.20;;;17.60;75.00;;;;;;5063128;28;20166;-67
2023/09/24 06:07:56;;;;;;;2.55;1.08;;;17.70;75.20;;;;;;5063463;28;20048;-68
2023/09/24 06:10:23;;;;;;;3.17;1.40;;;17.70;75.20;;;;;;5060697;28;20876;-67
2023/09/24 06:12:49;;;;;;;4.55;0.90;;;17.70;75.20;;;;;;5059375;28;20025;-67
2023/09/24 06:15:17;;;;;;;2.45;0.93;;;17.70;75.30;;;;;;5059997;28;20032;-68
2023/09/24 06:17:43;;;;;;;2.90;1.02;;;17.70;75.30;;;;;;5061323;28;20056;-66
2023/09/24 06:20:10;;;;;;;2.55;1.30;;;17.70;75.30;;;;;;5061828;28;20492;-67
2023/09/24 06:22:52;;;;;;;3.70;1.58;;;17.70;75.30;;;;;;5061777;28;20029;-70
2023/09/24 06:25:18;;;;;;;;;;;17.70;75.40;;;;;;5063925;28;20384;-68
2023/09/24 06:27:44;;;;;;;3.58;1.40;;;17.80;75.50;;;;;;5065072;28;20210;-67
2023/09/24 06:30:10;;;;;;;1.30;0.80;;;17.80;75.30;;;;;;5061144;28;20036;-68
2023/09/24 06:32:37;;;;;;;2.88;0.90;;;17.70;75.20;;;;;;5060862;28;20033;-67
2023/09/24 06:35:04;;;;;;;2.25;0.80;;;17.80;75.40;;;;;;5062969;28;20093;-66
2023/09/24 06:37:32;;;;;;;4.07;1.00;;;17.80;75.50;;;;;;5067068;28;20040;-67
2023/09/24 06:39:59;;;;;;;2.38;0.88;;;17.80;75.50;;;;;;5069710;28;20402;-68
2023/09/24 06:42:25;;;;;;;2.60;1.20;;;17.80;75.50;;;;;;5060618;28;20563;-68
2023/09/24 06:44:53;;;;;;;3.00;1.23;;;17.80;75.50;;;;;;5058011;28;20025;-68
2023/09/24 06:47:19;;;;;;;3.05;1.00;;;17.90;75.70;;;;;;5062753;28;20749;-68
2023/09/24 06:49:49;;;;;;;5.15;1.77;;;17.90;75.70;;;;;;5060510;28;20038;-67
2023/09/24 06:52:15;;;;;;;9.50;2.55;;;17.90;75.80;;;;;;5062039;28;20064;-67
2023/09/24 06:54:41;;;;;;;15.55;3.33;;;17.90;76.00;;;;;;5062566;28;20421;-67
2023/09/24 06:57:07;;;;;;;13.52;3.92;;;17.90;76.10;;;;;;5062854;28;20274;-68
2023/09/24 06:59:33;;;;;;;12.52;4.18;;;18.00;76.40;;;;;;5061417;28;20041;-67
2023/09/24 07:01:58;;;;;;;11.30;3.17;;;18.10;76.60;;;;;;5062599;28;20070;-67
2023/09/24 07:04:24;;;;;;;9.30;2.92;;;18.10;76.60;;;;;;5062896;28;20033;-69
2023/09/24 07:06:51;;;;;;;12.70;4.18;;;18.20;76.70;;;;;;5060635;28;20484;-67
2023/09/24 07:09:17;;;;;;;13.32;4.85;;;18.30;76.80;;;;;;5059160;28;20040;-69
2023/09/24 07:11:45;;;;;;;7.45;2.90;;;18.40;76.90;;;;;;5060692;28;20051;-66
2023/09/24 07:14:10;;;;;;;10.45;3.40;;;18.40;76.80;;;;;;5051156;28;20622;-68
2023/09/24 07:16:37;;;;;;;9.45;3.60;;;18.50;76.90;;;;;;5061906;28;20033;-66
2023/09/24 07:19:03;;;;;;;9.07;3.17;;;18.50;76.90;;;;;;5057645;28;20025;-67
2023/09/24 07:21:31;;;;;;;10.00;2.78;;;18.60;76.90;;;;;;5059273;28;20116;-66
2023/09/24 07:23:58;;;;;;;8.20;2.90;;;18.60;76.90;;;;;;5059641;28;20036;-66
2023/09/24 07:26:26;;;;;;;14.00;3.22;;;18.70;77.00;;;;;;5062080;28;20028;-67
2023/09/24 07:28:52;;;;;;;6.57;2.15;;;18.70;76.80;;;;;;5066246;28;20835;-67
2023/09/24 07:31:23;;;;;;;9.88;2.67;;;18.80;77.40;;;;;;5066948;28;20044;-68
2023/09/24 07:33:51;;;;;;;6.05;2.35;;;18.90;76.80;;;;;;5068595;28;20036;-67
2023/09/24 07:36:18;;;;;;;5.78;2.05;;;19.00;76.80;;;;;;5068312;28;20041;-66
2023/09/24 07:38:44;;;;;;;7.45;2.50;;;19.10;76.80;;;;;;5072453;28;20059;-67
2023/09/24 07:41:10;;;;;;;8.27;2.38;;;19.10;76.70;;;;;;5065693;28;20033;-66
2023/09/24 07:43:39;;;;;;;6.82;2.53;;;19.30;76.80;;;;;;5068382;28;20025;-66
2023/09/24 07:46:06;;;;;;;5.60;2.38;;;19.30;76.60;;;;;;5060589;28;20032;-67
2023/09/24 07:48:32;;;;;;;5.10;2.10;;;19.40;76.40;;;;;;5062086;28;20043;-67
2023/09/24 07:50:59;;;;;;;6.63;2.10;;;19.50;76.40;;;;;;5056266;28;20203;-66
2023/09/24 07:53:25;;;;;;;6.93;2.00;;;19.50;76.30;;;;;;5060326;28;20110;-70
2023/09/24 07:55:58;;;;;;;7.20;2.13;;;19.50;76.20;;;;;;5061756;28;20043;-66
2023/09/24 07:58:27;;;;;;;7.07;2.83;;;19.60;76.30;;;;;;5064373;28;20056;-68
2023/09/24 08:00:53;;;;;;;6.45;2.42;;;19.60;76.20;;;;;;5060618;28;20039;-66
2023/09/24 08:03:19;;;;;;;3.75;1.80;;;19.70;76.30;;;;;;5061966;28;20175;-67
2023/09/24 08:05:45;;;;;;;6.20;1.90;;;19.70;76.20;;;;;;5060817;28;20119;-66
2023/09/24 08:08:12;;;;;;;8.02;1.85;;;19.80;76.20;;;;;;5057181;28;20071;-68
2023/09/24 08:10:38;;;;;;;6.43;2.28;;;19.90;76.20;;;;;;5058029;28;20749;-67
2023/09/24 08:13:04;;;;;;;7.13;1.88;;;19.90;76.00;;;;;;5050153;28;20029;-67
2023/09/24 08:15:31;;;;;;;8.10;2.97;;;20.00;76.00;;;;;;5053103;28;20074;-66
2023/09/24 08:17:56;;;;;;;6.60;2.25;;;20.10;75.90;;;;;;5069482;28;20370;-66
2023/09/24 08:20:22;;;;;;;4.00;1.80;;;20.10;75.80;;;;;;5060221;28;20393;-67
2023/09/24 08:22:48;;;;;;;6.72;2.42;;;20.20;75.70;;;;;;5059925;28;20576;-66
2023/09/24 08:25:15;;;;;;;6.03;2.53;;;20.30;75.70;;;;;;5068969;28;20107;-66
2023/09/24 08:27:41;;;;;;;47.05;14.88;;;20.40;75.70;;;;;;5065199;28;20028;-68
2023/09/24 08:30:07;;;;;;;33.38;15.38;;;20.50;75.90;;;;;;5065666;28;20539;-67
2023/09/24 08:32:33;;;;;;;32.97;13.25;;;20.50;76.10;;;;;;5064102;28;20382;-68
2023/09/24 08:34:59;;;;;;;73.63;25.35;;;20.50;76.20;;;;;;5061813;28;20082;-66
2023/09/24 08:37:25;;;;;;;89.65;41.75;;;20.60;76.60;;;;;;5068607;28;20036;-67
2023/09/24 08:39:54;;;;;;;62.10;26.80;;;20.60;76.90;;;;;;5062870;28;20028;-68
2023/09/24 08:42:20;;;;;;;46.22;19.92;;;20.70;77.30;;;;;;5070215;28;20036;-68
2023/09/24 08:45:15;;;;;;;43.88;17.98;;;20.70;77.30;;;;;;5060115;28;20100;-70
2023/09/24 08:47:45;;;;;;;32.60;15.65;;;20.80;77.40;;;;;;5066643;28;20806;-67
2023/09/24 08:50:12;;;;;;;34.15;14.82;;;20.90;77.30;;;;;;5051795;28;20068;-67
2023/09/24 08:52:40;;;;;;;28.60;13.40;;;20.90;77.20;;;;;;5058121;28;20040;-69
2023/09/24 08:55:10;;;;;;;21.33;11.63;;;20.90;77.00;;;;;;5059393;28;20111;-66
2023/09/24 08:57:36;;;;;;;21.40;10.43;;;20.90;76.80;;;;;;5051700;28;20056;-66
2023/09/24 09:00:09;;;;;;;24.02;10.88;;;21.00;76.90;;;;;;5062621;28;20853;-67
2023/09/24 09:02:39;;;;;;;19.08;7.80;;;21.00;76.70;;;;;;5057065;28;20037;-66
2023/09/24 09:05:09;;;;;;;22.02;9.00;;;21.00;76.70;;;;;;5058420;28;20129;-70
2023/09/24 09:07:35;;;;;;;19.58;8.80;;;21.00;76.60;;;;;;5059464;28;20037;-66
2023/09/24 09:10:03;;;;;;;18.17;8.27;;;21.00;76.40;;;;;;5062727;28;20391;-67
2023/09/24 09:12:30;;;;;;;15.10;7.65;;;21.10;76.50;;;;;;5058444;28;20064;-71
2023/09/24 09:14:59;;;;;;;15.60;7.00;;;21.10;76.30;;;;;;5047146;28;20033;-67
2023/09/24 09:17:39;;;;;;;19.73;8.73;;;21.10;76.20;;;;;;5060490;28;20050;-67
2023/09/24 09:20:05;;;;;;;17.15;7.10;;;21.20;76.30;;;;;;5059945;28;20051;-66
2023/09/24 09:22:35;;;;;;;14.13;5.85;;;21.20;76.20;;;;;;5054225;28;20024;-66
2023/09/24 09:25:06;;;;;;;12.43;5.40;;;21.20;76.00;;;;;;5047320;28;20036;-69
2023/09/24 09:27:35;;;;;;;11.75;6.07;;;21.30;75.90;;;;;;5055543;28;20029;-67
2023/09/24 09:30:11;;;;;;;16.60;5.93;;;21.40;75.90;;;;;;5059317;28;20266;-67
2023/09/24 09:32:37;;;;;;;12.70;5.63;;;21.50;75.80;;;;;;5054011;28;20476;-67
2023/09/24 09:35:03;;;;;;;11.48;5.68;;;21.50;75.50;;;;;;5059057;28;20381;-68
2023/09/24 09:37:29;;;;;;;11.57;5.18;;;21.60;75.40;;;;;;5059988;28;20132;-67
2023/09/24 09:39:55;;;;;;;13.35;5.28;;;21.80;75.40;;;;;;5058025;28;20095;-70
2023/09/24 09:42:25;;;;;;;10.23;4.90;;;21.80;75.10;;;;;;5059754;28;20016;-67
2023/09/24 09:44:54;;;;;;;13.98;5.80;;;21.90;75.00;;;;;;5055329;28;20032;-67
2023/09/24 09:47:24;;;;;;;10.30;4.60;;;22.00;75.10;;;;;;5059667;28;20099;-67
2023/09/24 09:50:01;;;;;;;9.10;4.10;;;22.00;74.90;;;;;;5057963;28;20040;-71
2023/09/24 09:52:43;;;;;;;13.60;4.72;;;22.10;74.80;;;;;;5061608;28;20047;-68
2023/09/24 09:55:09;;;;;;;9.10;3.45;;;22.20;74.60;;;;;;5057985;28;20111;-68
2023/09/24 09:57:35;;;;;;;11.02;4.18;;;22.40;74.60;;;;;;5055071;28;20032;-68
2023/09/24 10:00:09;;;;;;;8.05;3.85;;;22.50;74.50;;;;;;5061482;28;20394;-68
2023/09/24 10:02:42;;;;;;;7.85;3.55;;;22.70;74.40;;;;;;5059320;28;20041;-67
2023/09/24 10:05:11;;;;;;;9.00;3.83;;;22.90;74.20;;;;;;5056385;28;20143;-68
2023/09/24 10:07:38;;;;;;;7.97;3.28;;;23.10;74.00;;;;;;5059745;28;20033;-70
2023/09/24 10:10:30;;;;;;;6.75;3.88;;;23.20;73.50;;;;;;5056759;28;20488;-69
2023/09/24 10:12:56;;;;;;;8.93;3.42;;;23.40;73.20;;;;;;5055292;28;20037;-67
2023/09/24 10:15:26;;;;;;;7.32;2.75;;;23.60;73.10;;;;;;5050066;28;20496;-66
2023/09/24 10:18:08;;;;;;;6.88;2.90;;;23.70;72.80;;;;;;5050500;28;20530;-66
2023/09/24 10:21:06;;;;;;;7.28;3.67;;;23.80;72.50;;;;;;5057667;28;20204;-70
2023/09/24 10:23:36;;;;;;;6.72;3.00;;;23.90;72.20;;;;;;5035345;28;20036;-68
2023/09/24 10:26:05;;;;;;;6.78;3.10;;;24.00;72.20;;;;;;5056351;28;20052;-67
2023/09/24 10:28:48;;;;;;;6.22;2.83;;;24.00;72.00;;;;;;5047706;28;20201;-69
2023/09/24 10:31:16;;;;;;;;;;;24.10;71.80;;;;;;5046846;28;20547;-68
2023/09/24 10:33:59;;;;;;;9.00;2.92;;;24.10;72.00;;;;;;5056931;28;19908;-69
2023/09/24 10:36:29;;;;;;;;;;;24.10;71.70;;;;;;5048840;28;20102;-67
2023/09/24 10:39:10;;;;;;;6.55;3.25;;;24.20;72.00;;;;;;5043408;28;19923;-67
2023/09/24 10:41:36;;;;;;;6.82;2.85;;;24.20;71.70;;;;;;5044032;28;20523;-70
2023/09/24 10:44:21;;;;;;;7.20;2.95;;;24.30;71.70;;;;;;5056216;28;20249;-67
2023/09/24 10:46:50;;;;;;;4.75;2.50;;;24.30;71.30;;;;;;5059793;28;20098;-68
2023/09/24 10:49:22;;;;;;;5.22;2.10;;;24.30;71.90;;;;;;5056611;28;20037;-67
2023/09/24 10:51:48;;;;;;;7.83;2.80;;;24.40;71.20;;;;;;5053939;28;20053;-67
2023/09/24 10:54:16;;;;;;;4.15;2.10;;;24.50;71.10;;;;;;5041918;28;20083;-68
2023/09/24 10:56:49;;;;;;;5.72;2.50;;;24.50;70.80;;;;;;5065825;28;20067;-67
2023/09/24 10:59:33;;;;;;;5.53;2.65;;;24.50;70.60;;;;;;5068627;28;20451;-69
2023/09/24 11:02:16;;;;;;;8.00;3.28;;;24.60;70.40;;;;;;5061935;28;20041;-68
2023/09/24 11:04:42;;;;;;;7.72;2.78;;;24.60;70.20;;;;;;5052752;28;20111;-68
2023/09/24 11:07:09;;;;;;;7.28;2.53;;;24.60;70.30;;;;;;5056788;28;20032;-68
2023/09/24 11:09:35;;;;;;;7.70;2.50;;;24.70;70.30;;;;;;5053724;28;20032;-69
2023/09/24 11:12:07;;;;;;;8.25;2.03;;;24.70;70.00;;;;;;5045691;28;20044;-69
2023/09/24 11:14:33;;;;;;;5.50;2.00;;;24.70;69.80;;;;;;5044149;28;20316;-69
2023/09/24 11:17:00;;;;;;;6.90;1.92;;;24.70;69.80;;;;;;5054527;28;20047;-68
2023/09/24 11:19:49;;;;;;;7.10;2.92;;;24.70;69.70;;;;;;5060288;28;20353;-68
2023/09/24 11:22:25;;;;;;;6.97;2.72;;;24.70;69.60;;;;;;5059990;28;20032;-69
2023/09/24 11:25:13;;;;;;;7.22;2.42;;;24.60;69.60;;;;;;5060227;28;20029;-67
2023/09/24 11:27:45;;;;;;;5.40;1.90;;;24.60;69.60;;;;;;5052867;28;20478;-68
2023/09/24 11:30:11;;;;;;;5.60;2.63;;;24.50;69.70;;;;;;5072288;28;20028;-69
2023/09/24 11:32:37;;;;;;;5.10;2.30;;;24.50;69.80;;;;;;5063924;28;20059;-70
2023/09/24 11:35:10;;;;;;;7.13;3.45;;;24.50;69.80;;;;;;5067352;28;20508;-72
2023/09/24 11:38:01;;;;;;;5.15;2.78;;;24.50;69.70;;;;;;5061547;28;20028;-68
2023/09/24 11:40:28;;;;;;;6.30;3.35;;;24.40;69.60;;;;;;5063473;28;20547;-66
2023/09/24 11:42:58;;;;;;;9.48;3.85;;;24.40;69.80;;;;;;5060784;28;20024;-67
2023/09/24 11:45:36;;;;;;;7.50;3.65;;;24.30;69.80;;;;;;5061086;28;21060;-68
2023/09/24 11:48:02;;;;;;;7.10;4.03;;;24.20;69.90;;;;;;5060477;28;20033;-67
2023/09/24 11:50:29;;;;;;;8.27;4.53;;;24.20;70.20;;;;;;5062598;28;20047;-67
2023/09/24 11:52:55;;;;;;;8.88;3.70;;;24.10;70.20;;;;;;5066800;28;20040;-69
2023/09/24 11:55:21;;;;;;;8.60;4.70;;;24.10;70.40;;;;;;5064168;28;20425;-68
2023/09/24 11:57:47;;;;;;;6.10;3.75;;;24.10;70.50;;;;;;5060423;28;20029;-69
2023/09/24 12:00:14;;;;;;;34.92;29.08;;;24.10;70.60;;;;;;5059307;28;20040;-68
2023/09/24 12:02:40;;;;;;;54.25;48.42;;;24.00;70.50;;;;;;5062448;28;20438;-69
2023/09/24 12:05:06;;;;;;;60.42;54.08;;;24.00;70.60;;;;;;5057088;28;20040;-68
2023/09/24 12:07:33;;;;;;;76.70;68.75;;;24.00;70.70;;;;;;5060877;28;20029;-70
2023/09/24 12:10:01;;;;;;;86.03;77.57;;;24.10;70.80;;;;;;5060142;28;20111;-68
2023/09/24 12:12:27;;;;;;;88.07;79.20;;;24.10;70.80;;;;;;5060894;28;20032;-68
2023/09/24 12:14:53;;;;;;;146.10;122.65;;;24.20;71.00;;;;;;5050376;28;20100;-68
2023/09/24 12:17:19;;;;;;;233.00;171.43;;;24.20;71.10;;;;;;5060233;28;20078;-68
2023/09/24 12:19:47;;;;;;;200.40;151.85;;;24.20;71.20;;;;;;5060235;28;20043;-68
2023/09/24 12:22:14;;;;;;;188.05;156.73;;;24.20;71.40;;;;;;5060194;28;20044;-69
2023/09/24 12:24:40;;;;;;;146.30;124.28;;;24.20;71.70;;;;;;5061548;28;20388;-69
2023/09/24 12:27:06;;;;;;;141.00;109.68;;;24.30;72.00;;;;;;5062628;28;20038;-70
2023/09/24 12:29:32;;;;;;;142.43;113.13;;;24.50;71.90;;;;;;5069785;28;20039;-69
2023/09/24 12:31:58;;;;;;;112.47;97.43;;;24.60;71.60;;;;;;5052892;28;20052;-70
2023/09/24 12:34:24;;;;;;;115.35;95.97;;;24.80;71.60;;;;;;5060744;28;20024;-69
2023/09/24 12:36:49;;;;;;;105.15;91.25;;;24.90;71.30;;;;;;5058989;28;20035;-69
2023/09/24 12:39:19;;;;;;;119.30;105.70;;;25.00;71.10;;;;;;5066061;28;20031;-69
2023/09/24 12:41:46;;;;;;;124.82;111.20;;;25.10;70.90;;;;;;5061366;28;20032;-69
2023/09/24 12:44:12;;;;;;;120.10;105.20;;;25.20;70.70;;;;;;5058615;28;20048;-70
2023/09/24 12:46:38;;;;;;;116.00;103.75;;;25.30;70.40;;;;;;5056025;28;20052;-69
2023/09/24 12:49:04;;;;;;;113.95;101.38;;;25.40;70.20;;;;;;5055887;28;20036;-69
2023/09/24 12:51:31;;;;;;;121.85;103.35;;;25.50;69.80;;;;;;5061601;28;20055;-68